Latest Coastal Weather Observations for Sydney Harbour

IDN60701

Issued at 2:01 am EDT Wednesday 18 October 2017 (issued every 10 minutes, with the page automatically refreshed every 10 minutes)

About coastal observations | Map of coastal stations | Coastal observations for NSW | Marine services | Other Formats
Station Details ID: 066196 Name: WEDDING CAKE WEST Lat: -33.84 Lon: 151.26 Height: 6.0 m
Data from the previous 72 hours. | See also: Recent months at Sydney Harbour
Date/Time
EDT
Temp
°C
Wind Pressure Rain since
9am
mm
Weather Cloud Vis
km
Sea
Height
m
Swell
Dir  Spd
kts
Gust
kts
hPa Trend Height
m
Period
s
Dir
18/02:00am 19.4 NE 15 18 - - - - - - - - - -
18/01:30am 19.5 NE 14 17 - - - - - - - - - -
18/01:00am 19.5 NE 15 17 - - - - - - - - - -
18/12:30am 19.5 NE 14 17 - - - - - - - - - -
18/12:00am 19.6 NE 14 17 - - - - - - - - - -
 
Date/Time
EDT
Temp
°C
Wind Pressure Rain since
9am
mm
Weather Cloud Vis
km
Sea
Height
m
Swell
Dir  Spd
kts
Gust
kts
hPa Trend Height
m
Period
s
Dir
17/11:30pm 19.6 NNE 15 18 - - - - - - - - - -
17/11:00pm 19.6 NNE 14 17 - - - - - - - - - -
17/10:30pm 19.6 NNE 15 20 - - - - - - - - - -
17/10:00pm 19.7 NNE 16 21 - - - - - - - - - -
17/09:30pm 19.6 NE 15 19 - - - - - - - - - -
17/09:00pm 19.6 NE 14 17 - - - - - - - - - -
17/08:30pm 19.7 NNE 13 16 - - - - - - - - - -
17/08:00pm 19.7 NNE 14 17 - - - - - - - - - -
17/07:30pm 19.7 NNE 13 16 - - - - - - - - - -
17/07:00pm 19.8 NE 12 15 - - - - - - - - - -
17/06:30pm 19.9 NNE 12 14 - - - - - - - - - -
17/06:00pm 20.1 NNE 17 21 - - - - - - - - - -
17/05:30pm 20.2 NE 16 19 - - - - - - - - - -
17/05:00pm 20.2 NNE 15 19 - - - - - - - - - -
17/04:30pm 20.2 NE 19 22 - - - - - - - - - -
17/04:00pm 20.2 NE 17 20 - - - - - - - - - -
17/03:30pm 20.2 NE 17 20 - - - - - - - - - -
17/03:00pm 20.1 NE 15 17 - - - - - - - - - -
17/02:30pm 20.1 NE 14 16 - - - - - - - - - -
17/02:00pm 20.2 ENE 15 17 - - - - - - - - - -
17/01:30pm 19.9 ENE 12 14 - - - - - - - - - -
17/01:00pm 20.1 ENE 13 14 - - - - - - - - - -
17/12:30pm 20.0 ENE 15 18 - - - - - - - - - -
17/12:00pm 20.0 ENE 12 14 - - - - - - - - - -
17/11:30am 20.1 NNE 14 17 - - - - - - - - - -
17/11:00am 19.7 NNE 16 18 - - - - - - - - - -
17/10:30am 19.8 NNE 16 19 - - - - - - - - - -
17/10:00am 19.5 NNE 16 19 - - - - - - - - - -
17/09:30am 19.5 NNE 14 17 - - - - - - - - - -
17/09:00am 19.6 NNE 16 20 - - - - - - - - - -
17/08:52am 19.5 NNE 12 19 - - - - - - - - - -
17/08:30am 18.9 N 2 6 - - - - - - - - - -
17/08:00am 18.5 N 3 4 - - - - - - - - - -
17/07:30am 18.1 N 4 5 - - - - - - - - - -
17/07:00am 17.9 N 3 4 - - - - - - - - - -
17/06:30am 18.1 CALM 0 0 - - - - - - - - - -
17/06:00am 17.8 CALM 0 0 - - - - - - - - - -
17/05:30am 18.0 N 1 3 - - - - - - - - - -
17/05:00am 18.1 N 1 3 - - - - - - - - - -
17/04:30am 18.2 N 4 6 - - - - - - - - - -
17/04:00am 18.5 N 5 7 - - - - - - - - - -
17/03:30am 18.5 NNE 7 8 - - - - - - - - - -
17/03:00am 18.5 NE 5 6 - - - - - - - - - -
17/02:30am 18.7 NE 4 6 - - - - - - - - - -
17/02:00am 18.7 NE 5 7 - - - - - - - - - -
17/01:30am 18.5 NE 4 5 - - - - - - - - - -
17/01:00am 18.4 NE 5 6 - - - - - - - - - -
17/12:30am 18.9 NE 5 6 - - - - - - - - - -
17/12:00am 19.5 NE 8 10 - - - - - - - - - -
 
Date/Time
EDT
Temp
°C
Wind Pressure Rain since
9am
mm
Weather Cloud Vis
km
Sea
Height
m
Swell
Dir  Spd
kts
Gust
kts
hPa Trend Height
m
Period
s
Dir
16/11:30pm 19.6 NE 9 10 - - - - - - - - - -
16/11:00pm 19.5 NE 8 9 - - - - - - - - - -
16/10:30pm 19.4 NE 9 11 - - - - - - - - - -
16/10:00pm 19.4 NE 10 11 - - - - - - - - - -
16/09:30pm 19.5 NNE 10 12 - - - - - - - - - -
16/09:00pm 19.4 NE 10 12 - - - - - - - - - -
16/08:30pm 19.5 NNE 9 12 - - - - - - - - - -
16/08:00pm 19.4 NNE 10 12 - - - - - - - - - -
16/07:30pm 19.5 NE 12 14 - - - - - - - - - -
16/07:00pm 19.6 NE 11 14 - - - - - - - - - -
16/06:30pm 19.5 NE 12 15 - - - - - - - - - -
16/06:00pm 19.5 NE 14 17 - - - - - - - - - -
16/05:30pm 19.6 NE 12 15 - - - - - - - - - -
16/05:00pm 19.6 ENE 12 15 - - - - - - - - - -
16/04:30pm 20.3 E 10 12 - - - - - - - - - -
16/04:00pm 20.4 E 9 13 - - - - - - - - - -
16/03:30pm 20.1 ENE 10 12 - - - - - - - - - -
16/03:00pm 20.5 E 11 14 - - - - - - - - - -
16/02:30pm 20.5 E 11 14 - - - - - - - - - -
16/02:00pm 20.6 E 11 13 - - - - - - - - - -
16/01:30pm 20.6 E 9 12 - - - - - - - - - -
16/01:00pm 20.5 E 10 12 - - - - - - - - - -
16/12:30pm 20.6 E 9 11 - - - - - - - - - -
16/12:00pm 20.4 E 8 10 - - - - - - - - - -
16/11:30am 20.7 E 9 11 - - - - - - - - - -
16/11:00am 20.7 E 7 10 - - - - - - - - - -
16/10:30am 20.6 E 6 9 - - - - - - - - - -
16/10:00am 20.4 E 7 9 - - - - - - - - - -
16/09:30am 19.9 E 6 9 - - - - - - - - - -
16/09:00am 19.9 E 8 9 - - - - - - - - - -
16/08:30am 20.0 E 7 9 - - - - - - - - - -
16/08:00am 20.0 ENE 5 7 - - - - - - - - - -
16/07:30am 18.3 ENE 3 4 - - - - - - - - - -
16/07:00am 18.0 CALM 0 0 - - - - - - - - - -
16/06:30am 17.6 CALM 0 0 - - - - - - - - - -
16/06:00am 17.5 ENE 3 4 - - - - - - - - - -
16/05:30am 17.9 ENE 3 5 - - - - - - - - - -
16/05:00am 17.8 ENE 3 5 - - - - - - - - - -
16/04:30am 18.7 ENE 6 7 - - - - - - - - - -
16/04:00am 18.7 ENE 5 7 - - - - - - - - - -
16/03:30am 18.8 ENE 6 7 - - - - - - - - - -
16/03:00am 18.7 ENE 6 7 - - - - - - - - - -
16/02:30am 18.9 ENE 7 8 - - - - - - - - - -
16/02:00am 18.9 ENE 7 9 - - - - - - - - - -
16/01:30am 19.0 E 8 10 - - - - - - - - - -
16/01:00am 18.9 ENE 7 9 - - - - - - - - - -
16/12:30am 18.9 ENE 8 11 - - - - - - - - - -
16/12:00am 19.0 ENE 8 9 - - - - - - - - - -
 
Date/Time
EDT
Temp
°C
Wind Pressure Rain since
9am
mm
Weather Cloud Vis
km
Sea
Height
m
Swell
Dir  Spd
kts
Gust
kts
hPa Trend Height
m
Period
s
Dir
15/11:30pm 19.0 ENE 6 7 - - - - - - - - - -
15/11:00pm 19.0 ENE 7 9 - - - - - - - - - -
15/10:30pm 19.0 ENE 8 10 - - - - - - - - - -
15/10:00pm 19.1 ENE 9 11 - - - - - - - - - -
15/09:30pm 19.2 ENE 8 10 - - - - - - - - - -
15/09:00pm 19.2 E 9 12 - - - - - - - - - -
15/08:30pm 19.2 E 8 10 - - - - - - - - - -
15/08:00pm 19.2 E 9 11 - - - - - - - - - -
15/07:30pm 19.2 E 9 11 - - - - - - - - - -
15/07:00pm 19.3 E 8 10 - - - - - - - - - -
15/06:30pm 19.3 E 6 8 - - - - - - - - - -
15/06:00pm 19.2 E 9 10 - - - - - - - - - -
15/05:30pm 19.2 E 8 9 - - - - - - - - - -
15/05:00pm 19.2 E 8 10 - - - - - - - - - -
15/04:30pm 19.3 E 9 11 - - - - - - - - - -
15/04:00pm 19.4 E 9 11 - - - - - - - - - -
15/03:30pm 19.2 E 9 11 - - - - - - - - - -
15/03:00pm 19.3 E 9 11 - - - - - - - - - -
15/02:30pm 19.3 E 9 11 - - - - - - - - - -
15/02:00pm 19.5 ESE 9 12 - - - - - - - - - -
15/01:30pm 19.8 ESE 9 12 - - - - - - - - - -
15/01:00pm 19.8 E 9 12 - - - - - - - - - -
15/12:30pm 19.8 E 9 12 - - - - - - - - - -
15/12:00pm 19.8 E 10 13 - - - - - - - - - -
15/11:30am 19.6 ESE 9 12 - - - - - - - - - -
15/11:00am 19.3 ESE 11 14 - - - - - - - - - -
15/10:30am 19.4 ESE 9 12 - - - - - - - - - -
15/10:00am 19.5 ESE 9 10 - - - - - - - - - -
15/09:30am 19.2 ESE 9 13 - - - - - - - - - -
15/09:00am 18.8 SE 9 11 - - - - - - - - - -
15/08:30am 18.8 SE 9 11 - - - - - - - - - -
15/08:00am 18.4 SE 9 12 - - - - - - - - - -
15/07:30am 18.1 SE 12 15 - - - - - - - - - -
15/07:00am 18.1 ESE 10 13 - - - - - - - - - -
15/06:30am 18.0 ESE 9 12 - - - - - - - - - -
15/06:00am 17.9 ESE 12 14 - - - - - - - - - -
15/05:30am 18.1 ESE 11 14 - - - - - - - - - -
15/05:00am 17.9 SE 11 13 - - - - - - - - - -
15/04:30am 18.1 SE 11 13 - - - - - - - - - -
15/04:00am 17.9 ESE 10 14 - - - - - - - - - -
15/03:30am 17.9 ESE 10 13 - - - - - - - - - -
15/03:00am 17.9 SE 10 15 - - - - - - - - - -
15/02:30am 17.9 ESE 9 13 - - - - - - - - - -

Other Formats:

Comma delimited format used in spreadsheet applications
http://www.bom.gov.au/fwo/IDN60701/IDN60701.95766.axf

JavaScript Object Notation format (JSON) in row-major order
http://www.bom.gov.au/fwo/IDN60701/IDN60701.95766.json